createdAt,value
2022-12-29T00:01:02.089Z,12.63
2022-12-29T00:03:29.913Z,13.87
2022-12-29T00:05:58.761Z,11.77
2022-12-29T00:08:41.145Z,10.97
2022-12-29T00:11:17.408Z,14.63
2022-12-29T00:14:03.272Z,14.00
2022-12-29T00:16:31.938Z,15.37
2022-12-29T00:18:59.667Z,14.27
2022-12-29T00:21:46.872Z,13.43
2022-12-29T00:24:23.145Z,14.07
2022-12-29T00:27:31.287Z,14.63
2022-12-29T00:30:18.118Z,13.70
2022-12-29T00:33:04.768Z,12.90
2022-12-29T00:36:08.350Z,13.93
2022-12-29T00:38:57.167Z,13.20
2022-12-29T00:41:43.053Z,14.93
2022-12-29T00:44:12.453Z,16.50
2022-12-29T00:46:42.372Z,11.87
2022-12-29T00:49:30.475Z,13.77
2022-12-29T00:51:59.242Z,16.87
2022-12-29T00:54:27.310Z,13.57
2022-12-29T00:56:54.844Z,16.30
2022-12-29T00:59:22.321Z,12.77
2022-12-29T01:01:49.901Z,11.53
2022-12-29T01:04:17.377Z,11.83
2022-12-29T01:06:45.792Z,14.07
2022-12-29T01:09:31.921Z,12.63
2022-12-29T01:11:59.988Z,10.10
2022-12-29T01:14:28.356Z,9.50
2022-12-29T01:16:56.735Z,12.10
2022-12-29T01:19:24.532Z,12.53
2022-12-29T01:21:52.399Z,16.07
2022-12-29T01:24:20.898Z,11.43
2022-12-29T01:26:49.769Z,9.87
2022-12-29T01:29:17.305Z,12.47
2022-12-29T01:31:45.665Z,10.30
2022-12-29T01:34:14.205Z,14.33
2022-12-29T01:36:41.786Z,10.83
2022-12-29T01:39:09.286Z,12.77
2022-12-29T01:41:36.630Z,8.43
2022-12-29T01:44:04.063Z,11.70
2022-12-29T01:46:43.194Z,11.20
2022-12-29T01:49:28.086Z,13.40
2022-12-29T01:52:00.285Z,8.33
2022-12-29T01:54:55.316Z,13.90
2022-12-29T01:57:31.231Z,9.80
2022-12-29T02:00:06.902Z,9.37
2022-12-29T02:02:34.899Z,13.20
2022-12-29T02:05:10.183Z,15.57
2022-12-29T02:07:39.170Z,7.50
2022-12-29T02:10:07.308Z,12.60
2022-12-29T02:12:35.752Z,10.90
2022-12-29T02:15:04.945Z,12.60
2022-12-29T02:18:03.240Z,12.47
2022-12-29T02:20:58.503Z,14.13
2022-12-29T02:23:25.916Z,8.57
2022-12-29T02:25:59.500Z,7.70
2022-12-29T02:28:45.847Z,6.87
2022-12-29T02:31:16.042Z,14.00
2022-12-29T02:33:46.398Z,13.10
2022-12-29T02:36:34.632Z,9.47
2022-12-29T02:39:07.811Z,11.73
2022-12-29T02:41:45.674Z,12.53
2022-12-29T02:44:20.033Z,12.03
2022-12-29T02:46:55.629Z,10.67
2022-12-29T02:49:38.107Z,14.47
2022-12-29T02:52:11.922Z,12.53
2022-12-29T02:54:42.177Z,5.67
2022-12-29T02:57:34.593Z,6.50
2022-12-29T03:00:19.077Z,9.23
2022-12-29T03:03:24.208Z,9.20
2022-12-29T03:06:06.529Z,8.13
2022-12-29T03:08:36.954Z,7.27
2022-12-29T03:11:32.084Z,9.17
2022-12-29T03:14:28.879Z,9.27
2022-12-29T03:17:01.995Z,12.33
2022-12-29T03:19:41.328Z,10.37
2022-12-29T03:22:31.980Z,8.63
2022-12-29T03:25:11.708Z,8.70
2022-12-29T03:27:50.624Z,11.40
2022-12-29T03:30:19.459Z,11.53
2022-12-29T03:32:52.496Z,14.20
2022-12-29T03:35:23.150Z,8.23
2022-12-29T03:38:19.590Z,10.13
2022-12-29T03:40:51.991Z,6.27
2022-12-29T03:43:20.135Z,12.77
2022-12-29T03:45:47.922Z,10.17
2022-12-29T03:48:16.029Z,10.73
2022-12-29T03:50:43.424Z,13.53
2022-12-29T03:53:10.875Z,11.93
2022-12-29T03:55:38.359Z,13.37
2022-12-29T03:58:06.059Z,10.80
2022-12-29T04:00:33.584Z,13.10
2022-12-29T04:03:01.992Z,10.37
2022-12-29T04:05:29.389Z,10.53
2022-12-29T04:07:56.726Z,10.07
2022-12-29T04:10:24.162Z,12.47
2022-12-29T04:12:51.853Z,9.37
2022-12-29T04:15:19.263Z,10.03
2022-12-29T04:17:46.744Z,14.17
2022-12-29T04:20:32.909Z,9.87
2022-12-29T04:23:06.173Z,9.30
2022-12-29T04:25:34.408Z,9.80
2022-12-29T04:28:02.115Z,9.87
2022-12-29T04:30:29.687Z,11.10
2022-12-29T04:32:57.327Z,9.53
2022-12-29T04:35:24.791Z,9.27
2022-12-29T04:37:52.120Z,7.07
2022-12-29T04:40:19.561Z,11.13
2022-12-29T04:42:47.150Z,11.53
2022-12-29T04:45:14.528Z,10.43
2022-12-29T04:47:42.000Z,12.23
2022-12-29T04:50:09.903Z,9.10
2022-12-29T04:52:37.655Z,9.82
2022-12-29T04:55:05.920Z,13.37
2022-12-29T04:57:33.568Z,10.50
2022-12-29T05:00:01.014Z,11.50
2022-12-29T05:02:28.552Z,12.40
2022-12-29T05:04:56.146Z,9.93
2022-12-29T05:07:23.704Z,9.77
2022-12-29T05:09:51.188Z,13.33
2022-12-29T05:12:18.557Z,10.03
2022-12-29T05:14:46.039Z,12.23
2022-12-29T05:17:13.645Z,11.53
2022-12-29T05:19:41.115Z,13.53
2022-12-29T05:22:08.647Z,9.13
2022-12-29T05:24:36.123Z,8.43
2022-12-29T05:27:03.640Z,12.07
2022-12-29T05:29:31.048Z,10.47
2022-12-29T05:31:58.578Z,9.03
2022-12-29T05:34:26.243Z,9.50
2022-12-29T05:36:53.801Z,12.67
2022-12-29T05:39:21.307Z,12.93
2022-12-29T05:41:48.686Z,9.03
2022-12-29T05:44:16.297Z,9.63
2022-12-29T05:46:45.681Z,11.77
2022-12-29T05:49:13.139Z,9.63
2022-12-29T05:51:41.944Z,11.47
2022-12-29T05:54:09.525Z,10.77
2022-12-29T05:56:36.857Z,10.13
2022-12-29T05:59:04.184Z,8.97
2022-12-29T06:01:31.958Z,13.17
2022-12-29T06:03:59.607Z,9.40
2022-12-29T06:06:27.049Z,11.83
2022-12-29T06:08:54.583Z,8.90
2022-12-29T06:11:22.002Z,8.77
2022-12-29T06:13:50.573Z,12.83
2022-12-29T06:16:18.192Z,9.60
2022-12-29T06:18:45.554Z,9.70
2022-12-29T06:21:13.021Z,10.20
2022-12-29T06:23:40.368Z,10.47
2022-12-29T06:26:07.727Z,8.77
2022-12-29T06:28:35.048Z,9.23
2022-12-29T06:31:03.924Z,9.07
2022-12-29T06:33:31.489Z,8.17
2022-12-29T06:35:58.812Z,8.37
2022-12-29T06:38:26.148Z,8.13
2022-12-29T06:40:53.423Z,6.93
2022-12-29T06:43:20.876Z,5.87
2022-12-29T06:45:48.391Z,9.53
2022-12-29T06:48:16.898Z,9.13
2022-12-29T06:50:44.664Z,10.07
2022-12-29T06:53:12.143Z,9.67
2022-12-29T06:55:39.569Z,8.93
2022-12-29T06:58:07.219Z,9.47
2022-12-29T07:00:34.756Z,9.37
2022-12-29T07:03:02.354Z,9.37
2022-12-29T07:05:32.969Z,8.77
2022-12-29T07:08:01.268Z,8.10
2022-12-29T07:10:28.959Z,9.47
2022-12-29T07:12:56.427Z,10.10
2022-12-29T07:15:23.786Z,9.27
2022-12-29T07:17:51.420Z,9.33
2022-12-29T07:20:24.790Z,8.87
2022-12-29T07:22:54.512Z,8.50
2022-12-29T07:25:22.642Z,7.57
2022-12-29T07:27:50.255Z,9.83
2022-12-29T07:30:18.002Z,9.47
2022-12-29T07:32:45.452Z,10.17
2022-12-29T07:35:12.940Z,9.03
2022-12-29T07:37:40.496Z,10.73
2022-12-29T07:40:08.855Z,11.00
2022-12-29T07:42:36.254Z,8.43
2022-12-29T07:45:04.412Z,9.03
2022-12-29T07:47:31.823Z,8.20
2022-12-29T07:49:59.224Z,9.87
2022-12-29T07:52:26.612Z,10.30
2022-12-29T07:54:54.087Z,10.43
2022-12-29T07:57:23.984Z,9.00
2022-12-29T07:59:55.429Z,10.60
2022-12-29T08:02:23.064Z,9.83
2022-12-29T08:04:51.380Z,9.43
2022-12-29T08:07:18.829Z,9.93
2022-12-29T08:09:46.485Z,9.60
2022-12-29T08:12:13.867Z,10.73
2022-12-29T08:14:41.241Z,11.10
2022-12-29T08:17:08.638Z,12.90
2022-12-29T08:19:36.037Z,12.37
2022-12-29T08:22:03.661Z,8.50
2022-12-29T08:24:31.120Z,7.60
2022-12-29T08:26:58.431Z,6.53
2022-12-29T08:29:26.232Z,10.50
2022-12-29T08:31:53.685Z,8.20
2022-12-29T08:34:21.138Z,9.23
2022-12-29T08:36:48.781Z,9.10
2022-12-29T08:39:16.641Z,7.67
2022-12-29T08:41:44.099Z,11.37
2022-12-29T08:44:11.609Z,10.63
2022-12-29T08:46:39.318Z,8.80
2022-12-29T08:49:07.038Z,14.77
2022-12-29T08:51:34.413Z,12.50
2022-12-29T08:54:05.036Z,12.40
2022-12-29T08:56:32.950Z,12.50
2022-12-29T08:59:00.325Z,12.53
2022-12-29T09:01:28.123Z,14.63
2022-12-29T09:06:44.423Z,10.83
2022-12-29T09:09:12.384Z,13.80
2022-12-29T09:11:40.355Z,10.57
2022-12-29T09:14:08.001Z,11.60
2022-12-29T09:16:35.733Z,10.67
2022-12-29T09:19:03.879Z,13.83
2022-12-29T09:21:31.895Z,9.40
2022-12-29T09:23:59.409Z,12.30
2022-12-29T09:26:26.870Z,12.97
2022-12-29T09:28:54.297Z,10.27
2022-12-29T09:31:21.895Z,10.50
2022-12-29T09:33:49.359Z,11.27
2022-12-29T09:36:16.805Z,9.23
2022-12-29T09:38:44.255Z,12.20
2022-12-29T09:41:41.150Z,12.00
2022-12-29T09:44:57.715Z,9.53
2022-12-29T09:47:27.299Z,11.80
2022-12-29T09:50:00.072Z,9.70
2022-12-29T09:52:34.003Z,9.20
2022-12-29T09:55:12.123Z,9.97
2022-12-29T09:58:03.406Z,9.60
2022-12-29T10:00:45.838Z,10.33
2022-12-29T10:03:25.475Z,11.07
2022-12-29T10:06:10.361Z,9.47
2022-12-29T10:08:59.919Z,9.33
2022-12-29T10:11:45.775Z,9.73
2022-12-29T10:14:42.298Z,11.47
2022-12-29T10:17:15.431Z,11.07
2022-12-29T10:19:56.704Z,13.90
2022-12-29T10:22:55.096Z,12.20
2022-12-29T10:25:31.201Z,11.10
2022-12-29T10:28:05.653Z,12.50
2022-12-29T10:30:35.454Z,11.30
2022-12-29T10:33:13.030Z,12.03
2022-12-29T10:35:41.721Z,11.20
2022-12-29T10:38:12.148Z,15.50
2022-12-29T10:40:58.509Z,16.57
2022-12-29T10:43:31.685Z,14.73
2022-12-29T10:46:03.311Z,15.87
2022-12-29T10:48:33.973Z,12.93
2022-12-29T10:51:04.351Z,11.37
2022-12-29T10:54:00.538Z,13.87
2022-12-29T10:56:36.541Z,11.07
2022-12-29T10:59:32.466Z,8.67
2022-12-29T11:02:12.684Z,12.20
2022-12-29T11:04:40.324Z,13.10
2022-12-29T11:07:15.639Z,11.17
2022-12-29T11:09:45.880Z,11.43
2022-12-29T11:12:30.979Z,12.73
2022-12-29T11:15:17.250Z,10.07
2022-12-29T11:17:49.278Z,13.27
2022-12-29T11:20:39.682Z,10.17
2022-12-29T11:23:39.546Z,9.90
2022-12-29T11:26:13.105Z,12.60
2022-12-29T11:28:42.772Z,12.80
2022-12-29T11:31:10.688Z,10.53
2022-12-29T11:33:40.176Z,11.57
2022-12-29T11:36:21.519Z,10.77
2022-12-29T11:38:56.946Z,11.77
2022-12-29T11:41:27.444Z,12.23
2022-12-29T11:43:58.843Z,12.37
2022-12-29T11:46:32.748Z,10.77
2022-12-29T11:49:01.858Z,14.03
2022-12-29T11:51:47.146Z,10.37
2022-12-29T11:54:24.381Z,13.23
2022-12-29T11:56:52.963Z,13.13
2022-12-29T11:59:31.145Z,14.57
2022-12-29T12:02:00.795Z,13.83
2022-12-29T12:04:35.346Z,14.03
2022-12-29T12:07:32.196Z,16.43
2022-12-29T12:10:07.519Z,13.33
2022-12-29T12:13:13.950Z,13.57
2022-12-29T12:15:51.249Z,15.07
2022-12-29T12:18:33.332Z,15.27
2022-12-29T12:21:45.320Z,17.53
2022-12-29T12:24:37.890Z,15.10
2022-12-29T12:27:13.001Z,14.27
2022-12-29T12:29:59.547Z,14.47
2022-12-29T12:32:51.942Z,15.93
2022-12-29T12:35:46.056Z,15.87
2022-12-29T12:38:22.122Z,14.47
2022-12-29T12:40:49.508Z,17.77
2022-12-29T12:43:31.822Z,14.47
2022-12-29T12:46:42.218Z,15.93
2022-12-29T12:49:31.930Z,17.60
2022-12-29T12:52:15.747Z,14.40
2022-12-29T12:55:30.973Z,14.87
2022-12-29T12:58:07.007Z,17.97
2022-12-29T13:01:06.522Z,17.13
2022-12-29T13:03:48.789Z,16.07
2022-12-29T13:06:33.816Z,14.37
2022-12-29T13:09:31.263Z,16.53
2022-12-29T13:12:08.871Z,17.20
2022-12-29T13:15:09.099Z,14.20
2022-12-29T13:17:50.096Z,16.13
2022-12-29T13:20:51.416Z,14.50
2022-12-29T13:23:25.718Z,16.53
2022-12-29T13:26:01.841Z,16.83
2022-12-29T13:28:40.068Z,18.80
2022-12-29T13:31:33.975Z,20.60
2022-12-29T13:34:16.805Z,18.03
2022-12-29T13:36:49.264Z,18.70
2022-12-29T13:39:35.564Z,17.10
2022-12-29T13:42:04.744Z,12.77
2022-12-29T13:44:37.082Z,20.60
2022-12-29T13:47:30.769Z,18.83
2022-12-29T13:50:00.727Z,18.53
2022-12-29T13:53:02.269Z,19.10
2022-12-29T13:55:49.705Z,13.30
2022-12-29T13:58:40.403Z,15.40
2022-12-29T14:01:32.151Z,17.73
2022-12-29T14:04:01.952Z,18.00
2022-12-29T14:06:36.545Z,20.47
2022-12-29T14:09:33.506Z,14.93
2022-12-29T14:12:02.863Z,19.90
2022-12-29T14:14:32.699Z,15.40
2022-12-29T14:17:15.186Z,14.70
2022-12-29T14:19:46.095Z,18.73
2022-12-29T14:22:14.352Z,23.53
2022-12-29T14:24:44.657Z,19.50
2022-12-29T14:27:12.075Z,17.77
2022-12-29T14:29:42.611Z,21.00
2022-12-29T14:32:33.297Z,17.80
2022-12-29T14:35:21.906Z,20.77
2022-12-29T14:38:05.576Z,18.27
2022-12-29T14:40:34.819Z,18.17
2022-12-29T14:43:02.371Z,22.23
2022-12-29T14:45:33.978Z,21.70
2022-12-29T14:48:01.525Z,16.03
2022-12-29T14:50:43.315Z,20.03
2022-12-29T14:53:45.227Z,18.30
2022-12-29T14:56:14.969Z,15.50
2022-12-29T14:58:50.422Z,15.70
2022-12-29T15:01:27.831Z,13.63
2022-12-29T15:03:59.895Z,13.07
2022-12-29T15:06:31.362Z,15.13
2022-12-29T15:09:15.597Z,15.70
2022-12-29T15:11:50.813Z,18.07
2022-12-29T15:14:38.115Z,18.10
2022-12-29T15:17:31.743Z,10.87
2022-12-29T15:20:01.409Z,16.50
2022-12-29T15:22:28.981Z,19.50
2022-12-29T15:24:57.985Z,13.47
2022-12-29T15:27:27.338Z,12.13
2022-12-29T15:30:00.008Z,16.17
2022-12-29T15:32:29.696Z,14.43
2022-12-29T15:35:01.385Z,13.80
2022-12-29T15:37:34.782Z,15.20
2022-12-29T15:40:03.428Z,15.17
2022-12-29T15:43:00.053Z,13.10
2022-12-29T15:45:35.616Z,12.93
2022-12-29T15:48:04.505Z,15.33
2022-12-29T15:50:35.034Z,12.80
2022-12-29T15:53:04.488Z,13.73
2022-12-29T15:55:38.738Z,13.10
2022-12-29T15:58:23.643Z,12.90
2022-12-29T16:00:54.398Z,11.17
2022-12-29T16:03:23.904Z,11.70
2022-12-29T16:05:57.749Z,10.83
2022-12-29T16:08:41.232Z,11.03
2022-12-29T16:11:26.403Z,12.73
2022-12-29T16:13:55.090Z,14.00
2022-12-29T16:16:31.204Z,14.03
2022-12-29T16:18:59.637Z,11.83
2022-12-29T16:21:34.740Z,14.87
2022-12-29T16:24:06.974Z,13.17
2022-12-29T16:26:34.625Z,12.60
2022-12-29T16:29:06.150Z,13.60
2022-12-29T16:31:33.696Z,13.10
2022-12-29T16:34:22.652Z,12.00
2022-12-29T16:36:58.906Z,10.60
2022-12-29T16:39:27.469Z,11.27
2022-12-29T16:41:56.198Z,8.00
2022-12-29T16:44:31.941Z,10.57
2022-12-29T16:47:19.289Z,17.87
2022-12-29T16:49:53.081Z,10.37
2022-12-29T16:52:30.391Z,12.97
2022-12-29T16:55:04.365Z,12.30
2022-12-29T16:57:37.268Z,12.07
2022-12-29T17:00:09.115Z,11.53
2022-12-29T17:02:46.202Z,13.73
2022-12-29T17:05:19.034Z,11.53
2022-12-29T17:07:47.377Z,13.67
2022-12-29T17:10:15.851Z,15.50
2022-12-29T17:12:49.618Z,15.00
2022-12-29T17:15:25.519Z,12.03
2022-12-29T17:17:55.759Z,12.93
2022-12-29T17:20:27.052Z,12.60
2022-12-29T17:22:54.732Z,11.50
2022-12-29T17:25:27.676Z,14.63
2022-12-29T17:28:05.043Z,11.43
2022-12-29T17:30:34.958Z,13.10
2022-12-29T17:33:09.833Z,13.23
2022-12-29T17:35:37.524Z,15.37
2022-12-29T17:38:22.021Z,11.43
2022-12-29T17:40:50.346Z,13.33
2022-12-29T17:43:18.481Z,6.77
2022-12-29T17:52:36.901Z,10.57
2022-12-29T17:56:07.129Z,13.50
2022-12-29T17:59:07.155Z,10.17
2022-12-29T18:15:37.243Z,12.87
2022-12-29T18:18:13.823Z,12.97
2022-12-29T18:20:43.316Z,12.63
2022-12-29T18:23:27.343Z,14.60
2022-12-29T18:25:59.277Z,13.23
2022-12-29T18:28:27.831Z,10.50
2022-12-29T18:30:57.709Z,11.00
2022-12-29T18:33:26.800Z,14.40
2022-12-29T18:36:03.485Z,15.70
2022-12-29T18:38:31.425Z,12.13
2022-12-29T18:41:00.129Z,18.57
2022-12-29T18:43:27.537Z,14.43
2022-12-29T18:45:55.283Z,15.43
2022-12-29T18:48:22.812Z,15.53
2022-12-29T18:50:52.086Z,14.77
2022-12-29T18:53:22.324Z,15.97
2022-12-29T18:55:50.295Z,13.07
2022-12-29T18:58:17.698Z,14.10
2022-12-29T19:00:45.461Z,12.40
2022-12-29T19:03:14.357Z,13.33
2022-12-29T19:05:43.498Z,16.97
2022-12-29T19:08:11.710Z,16.80
2022-12-29T19:10:40.593Z,15.27
2022-12-29T19:13:14.524Z,14.30
2022-12-29T19:15:42.004Z,15.47
2022-12-29T19:18:43.007Z,15.20
2022-12-29T19:21:04.461Z,17.43
2022-12-29T19:23:31.869Z,14.07
2022-12-29T19:25:59.305Z,17.43
2022-12-29T19:28:30.825Z,17.53
2022-12-29T19:31:00.554Z,15.20
2022-12-29T19:33:28.401Z,16.27
2022-12-29T19:36:01.611Z,14.03
2022-12-29T19:38:30.012Z,14.60
2022-12-29T19:43:27.174Z,14.83
2022-12-29T19:45:54.788Z,16.37
2022-12-29T19:48:22.122Z,15.60
2022-12-29T19:50:49.511Z,14.63
2022-12-29T19:53:16.988Z,15.50
2022-12-29T19:55:46.285Z,15.80
2022-12-29T19:58:14.817Z,13.90
2022-12-29T20:00:43.941Z,11.27
2022-12-29T20:03:12.207Z,13.10
2022-12-29T20:05:40.425Z,12.13
2022-12-29T20:11:17.028Z,10.80
2022-12-29T20:34:28.138Z,8.33
2022-12-29T20:36:55.547Z,10.67
2022-12-29T20:50:09.850Z,9.43
2022-12-29T20:52:38.319Z,6.47
2022-12-29T20:55:06.031Z,10.83
2022-12-29T20:57:57.187Z,9.50
2022-12-29T21:02:53.735Z,6.33
2022-12-29T21:05:24.060Z,13.67
2022-12-29T21:07:53.059Z,11.90
2022-12-29T21:16:08.369Z,6.07
2022-12-29T21:18:35.842Z,8.10
2022-12-29T21:21:18.693Z,7.37
2022-12-29T21:23:46.353Z,8.80
2022-12-29T21:26:20.114Z,6.27
2022-12-29T21:28:47.919Z,7.03
2022-12-29T21:31:32.943Z,8.33
2022-12-29T21:34:01.113Z,6.93
2022-12-29T21:36:29.962Z,7.10
2022-12-29T21:38:58.508Z,7.47
2022-12-29T21:41:26.011Z,6.07
2022-12-29T21:44:12.466Z,5.77
2022-12-29T21:46:42.186Z,4.93
2022-12-29T21:49:10.047Z,8.60
2022-12-29T21:51:54.344Z,6.73
2022-12-29T21:54:48.263Z,8.63
2022-12-29T21:57:38.017Z,3.53
2022-12-29T22:00:37.261Z,3.63
2022-12-29T22:03:23.950Z,3.70
2022-12-29T22:06:11.367Z,4.77
2022-12-29T22:08:59.168Z,4.70
2022-12-29T22:11:45.363Z,1.97
2022-12-29T22:14:12.956Z,3.10
2022-12-29T22:16:40.478Z,2.77
2022-12-29T22:19:08.954Z,3.23
2022-12-29T22:21:36.413Z,3.50
2022-12-29T22:24:03.880Z,4.67
2022-12-29T22:26:32.283Z,3.63
2022-12-29T22:28:59.719Z,2.47
2022-12-29T22:31:32.692Z,4.80
2022-12-29T22:34:02.772Z,3.33
2022-12-29T22:36:31.290Z,5.63
2022-12-29T22:38:58.922Z,2.97
2022-12-29T22:41:26.440Z,3.43
2022-12-29T22:43:54.753Z,6.20
2022-12-29T22:46:22.376Z,5.30
2022-12-29T22:48:49.893Z,6.63
2022-12-29T22:51:17.291Z,4.30
2022-12-29T22:53:45.612Z,3.77
2022-12-29T22:56:13.896Z,7.40
2022-12-29T22:58:43.092Z,4.60
2022-12-29T23:01:12.803Z,3.27
2022-12-29T23:03:40.654Z,4.07
2022-12-29T23:06:11.418Z,10.40
2022-12-29T23:08:40.186Z,4.50
2022-12-29T23:11:11.798Z,7.60
2022-12-29T23:16:16.517Z,8.27
2022-12-29T23:18:46.010Z,7.47
